sensor_id;sensor_type;location;lat;lon;timestamp;pressure;altitude;pressure_sealevel;temperature;humidity
57048;BME280;42934;54.294;18.598;2023-03-20T00:00:02;100716.34;;;8.60;82.08
57048;BME280;42934;54.294;18.598;2023-03-20T00:02:31;100705.97;;;8.57;82.66
57048;BME280;42934;54.294;18.598;2023-03-20T00:05:01;100706.78;;;8.59;82.63
57048;BME280;42934;54.294;18.598;2023-03-20T00:07:30;100707.75;;;8.55;82.91
57048;BME280;42934;54.294;18.598;2023-03-20T00:10:02;100707.66;;;8.60;83.03
57048;BME280;42934;54.294;18.598;2023-03-20T00:12:31;100711.50;;;8.44;84.64
57048;BME280;42934;54.294;18.598;2023-03-20T00:15:04;100707.38;;;8.32;85.95
57048;BME280;42934;54.294;18.598;2023-03-20T00:17:34;100697.06;;;8.26;87.19
57048;BME280;42934;54.294;18.598;2023-03-20T00:20:04;100697.69;;;8.38;85.47
57048;BME280;42934;54.294;18.598;2023-03-20T00:22:34;100692.50;;;8.34;86.12
57048;BME280;42934;54.294;18.598;2023-03-20T00:25:06;100693.25;;;8.40;85.08
57048;BME280;42934;54.294;18.598;2023-03-20T00:27:36;100695.81;;;8.44;84.81
57048;BME280;42934;54.294;18.598;2023-03-20T00:30:26;100692.41;;;8.40;84.49
57048;BME280;42934;54.294;18.598;2023-03-20T00:32:57;100691.44;;;8.44;84.28
57048;BME280;42934;54.294;18.598;2023-03-20T00:35:29;100698.41;;;8.44;84.20
57048;BME280;42934;54.294;18.598;2023-03-20T00:37:58;100693.31;;;8.39;84.67
57048;BME280;42934;54.294;18.598;2023-03-20T00:40:30;100693.19;;;8.44;84.17
57048;BME280;42934;54.294;18.598;2023-03-20T00:43:02;100690.06;;;8.26;85.87
57048;BME280;42934;54.294;18.598;2023-03-20T00:45:33;100684.69;;;8.32;85.10
57048;BME280;42934;54.294;18.598;2023-03-20T00:48:04;100682.00;;;8.38;84.51
57048;BME280;42934;54.294;18.598;2023-03-20T00:50:34;100684.69;;;8.32;85.16
57048;BME280;42934;54.294;18.598;2023-03-20T00:53:08;100677.59;;;8.37;84.57
57048;BME280;42934;54.294;18.598;2023-03-20T00:55:40;100683.91;;;8.29;85.06
57048;BME280;42934;54.294;18.598;2023-03-20T00:58:10;100682.41;;;8.18;85.57
57048;BME280;42934;54.294;18.598;2023-03-20T01:00:41;100684.38;;;8.07;87.18
57048;BME280;42934;54.294;18.598;2023-03-20T01:03:16;100683.75;;;7.96;88.31
57048;BME280;42934;54.294;18.598;2023-03-20T01:05:49;100684.75;;;7.90;88.72
57048;BME280;42934;54.294;18.598;2023-03-20T01:08:20;100682.19;;;7.87;88.92
57048;BME280;42934;54.294;18.598;2023-03-20T01:10:54;100672.78;;;7.80;90.06
57048;BME280;42934;54.294;18.598;2023-03-20T01:13:26;100665.66;;;7.87;89.06
57048;BME280;42934;54.294;18.598;2023-03-20T01:15:57;100672.63;;;7.86;89.35
57048;BME280;42934;54.294;18.598;2023-03-20T01:18:27;100677.88;;;7.86;89.45
57048;BME280;42934;54.294;18.598;2023-03-20T01:20:57;100671.91;;;7.80;90.08
57048;BME280;42934;54.294;18.598;2023-03-20T01:23:26;100675.66;;;7.66;91.21
57048;BME280;42934;54.294;18.598;2023-03-20T01:25:57;100669.31;;;7.78;90.85
57048;BME280;42934;54.294;18.598;2023-03-20T01:28:27;100666.84;;;7.70;91.23
57048;BME280;42934;54.294;18.598;2023-03-20T01:30:58;100666.97;;;7.66;92.15
57048;BME280;42934;54.294;18.598;2023-03-20T01:33:28;100666.81;;;7.73;91.09
57048;BME280;42934;54.294;18.598;2023-03-20T01:35:58;100668.53;;;7.74;90.74
57048;BME280;42934;54.294;18.598;2023-03-20T01:38:28;100672.84;;;7.77;90.31
57048;BME280;42934;54.294;18.598;2023-03-20T01:41:04;100664.16;;;7.75;90.26
57048;BME280;42934;54.294;18.598;2023-03-20T01:43:37;100670.34;;;7.71;90.53
57048;BME280;42934;54.294;18.598;2023-03-20T01:46:17;100666.63;;;7.81;90.09
57048;BME280;42934;54.294;18.598;2023-03-20T01:51:59;100661.75;;;8.06;87.73
57048;BME280;42934;54.294;18.598;2023-03-20T01:54:34;100656.41;;;8.11;87.08
57048;BME280;42934;54.294;18.598;2023-03-20T01:57:13;100662.63;;;8.05;87.40
57048;BME280;42934;54.294;18.598;2023-03-20T01:59:45;100659.94;;;8.08;87.53
57048;BME280;42934;54.294;18.598;2023-03-20T02:02:20;100660.78;;;8.10;86.86
57048;BME280;42934;54.294;18.598;2023-03-20T02:04:55;100652.91;;;8.12;86.49
57048;BME280;42934;54.294;18.598;2023-03-20T02:07:25;100645.31;;;8.01;87.38
57048;BME280;42934;54.294;18.598;2023-03-20T02:10:00;100643.53;;;8.02;87.96
57048;BME280;42934;54.294;18.598;2023-03-20T02:12:42;100643.31;;;8.12;87.08
57048;BME280;42934;54.294;18.598;2023-03-20T02:15:16;100646.25;;;7.97;87.09
57048;BME280;42934;54.294;18.598;2023-03-20T02:18:01;100638.69;;;7.85;88.98
57048;BME280;42934;54.294;18.598;2023-03-20T02:20:49;100639.09;;;8.05;87.29
57048;BME280;42934;54.294;18.598;2023-03-20T02:23:48;100640.03;;;8.03;87.17
57048;BME280;42934;54.294;18.598;2023-03-20T02:26:45;100630.53;;;8.00;87.55
57048;BME280;42934;54.294;18.598;2023-03-20T02:29:48;100635.59;;;8.06;86.44
57048;BME280;42934;54.294;18.598;2023-03-20T02:32:42;100626.94;;;8.04;86.14
57048;BME280;42934;54.294;18.598;2023-03-20T02:35:35;100629.47;;;8.07;85.98
57048;BME280;42934;54.294;18.598;2023-03-20T02:38:41;100630.38;;;8.06;85.86
57048;BME280;42934;54.294;18.598;2023-03-20T02:41:19;100631.22;;;8.07;85.70
57048;BME280;42934;54.294;18.598;2023-03-20T02:43:59;100630.41;;;8.05;85.99
57048;BME280;42934;54.294;18.598;2023-03-20T02:46:37;100627.06;;;7.98;85.62
57048;BME280;42934;54.294;18.598;2023-03-20T02:49:30;100619.22;;;7.98;85.86
57048;BME280;42934;54.294;18.598;2023-03-20T02:52:07;100618.59;;;7.87;86.87
57048;BME280;42934;54.294;18.598;2023-03-20T02:54:49;100611.44;;;7.95;86.57
57048;BME280;42934;54.294;18.598;2023-03-20T02:57:30;100613.16;;;7.96;86.01
57048;BME280;42934;54.294;18.598;2023-03-20T03:00:11;100604.53;;;7.92;86.09
57048;BME280;42934;54.294;18.598;2023-03-20T03:02:46;100599.38;;;7.89;85.96
57048;BME280;42934;54.294;18.598;2023-03-20T03:05:22;100596.72;;;7.91;85.70
57048;BME280;42934;54.294;18.598;2023-03-20T03:07:56;100590.75;;;7.84;86.26
57048;BME280;42934;54.294;18.598;2023-03-20T03:10:37;100593.38;;;7.86;86.62
57048;BME280;42934;54.294;18.598;2023-03-20T03:13:12;100594.28;;;7.83;86.43
57048;BME280;42934;54.294;18.598;2023-03-20T03:15:46;100583.84;;;7.82;86.48
57048;BME280;42934;54.294;18.598;2023-03-20T03:18:19;100594.16;;;7.88;86.15
57048;BME280;42934;54.294;18.598;2023-03-20T03:20:55;100598.94;;;7.69;88.14
57048;BME280;42934;54.294;18.598;2023-03-20T03:23:30;100597.97;;;7.74;88.02
57048;BME280;42934;54.294;18.598;2023-03-20T03:26:02;100600.38;;;7.82;88.07
57048;BME280;42934;54.294;18.598;2023-03-20T03:28:36;100600.22;;;7.90;87.33
57048;BME280;42934;54.294;18.598;2023-03-20T03:31:10;100593.94;;;7.97;86.88
57048;BME280;42934;54.294;18.598;2023-03-20T03:33:43;100591.47;;;7.91;87.24
57048;BME280;42934;54.294;18.598;2023-03-20T03:36:23;100592.44;;;7.88;88.63
57048;BME280;42934;54.294;18.598;2023-03-20T03:38:57;100588.72;;;7.99;87.50
57048;BME280;42934;54.294;18.598;2023-03-20T03:41:34;100584.31;;;7.99;87.25
57048;BME280;42934;54.294;18.598;2023-03-20T03:44:10;100580.78;;;8.03;87.15
57048;BME280;42934;54.294;18.598;2023-03-20T03:46:45;100580.69;;;8.06;87.19
57048;BME280;42934;54.294;18.598;2023-03-20T03:49:21;100578.00;;;8.09;88.43
57048;BME280;42934;54.294;18.598;2023-03-20T03:51:54;100578.72;;;8.16;88.33
57048;BME280;42934;54.294;18.598;2023-03-20T03:54:28;100574.25;;;8.21;88.32
57048;BME280;42934;54.294;18.598;2023-03-20T03:57:22;100572.47;;;8.22;88.47
57048;BME280;42934;54.294;18.598;2023-03-20T03:59:55;100572.41;;;8.25;87.80
57048;BME280;42934;54.294;18.598;2023-03-20T04:02:26;100568.03;;;8.25;87.26
57048;BME280;42934;54.294;18.598;2023-03-20T04:04:59;100569.81;;;8.23;87.31
57048;BME280;42934;54.294;18.598;2023-03-20T04:07:30;100570.63;;;8.27;86.97
57048;BME280;42934;54.294;18.598;2023-03-20T04:09:59;100566.31;;;8.24;86.66
57048;BME280;42934;54.294;18.598;2023-03-20T04:12:35;100569.78;;;8.25;86.38
57048;BME280;42934;54.294;18.598;2023-03-20T04:15:09;100569.00;;;8.21;85.93
57048;BME280;42934;54.294;18.598;2023-03-20T04:17:39;100572.47;;;8.22;85.74
57048;BME280;42934;54.294;18.598;2023-03-20T04:20:11;100569.03;;;8.19;85.62
57048;BME280;42934;54.294;18.598;2023-03-20T04:22:40;100566.53;;;8.15;85.59
57048;BME280;42934;54.294;18.598;2023-03-20T04:25:17;100561.34;;;8.13;85.89
57048;BME280;42934;54.294;18.598;2023-03-20T04:27:48;100564.84;;;8.12;85.94
57048;BME280;42934;54.294;18.598;2023-03-20T04:30:26;100566.72;;;8.06;85.81
57048;BME280;42934;54.294;18.598;2023-03-20T04:33:16;100566.16;;;7.93;88.23
57048;BME280;42934;54.294;18.598;2023-03-20T04:36:09;100562.41;;;8.05;87.25
57048;BME280;42934;54.294;18.598;2023-03-20T04:38:40;100568.41;;;8.08;87.80
57048;BME280;42934;54.294;18.598;2023-03-20T04:41:09;100569.41;;;8.04;87.33
57048;BME280;42934;54.294;18.598;2023-03-20T04:43:40;100562.47;;;8.03;87.34
57048;BME280;42934;54.294;18.598;2023-03-20T04:46:10;100562.34;;;8.08;87.50
57048;BME280;42934;54.294;18.598;2023-03-20T04:48:40;100564.25;;;8.00;88.15
57048;BME280;42934;54.294;18.598;2023-03-20T04:51:11;100566.94;;;7.98;89.21
57048;BME280;42934;54.294;18.598;2023-03-20T04:53:48;100569.63;;;7.95;89.38
57048;BME280;42934;54.294;18.598;2023-03-20T04:56:18;100564.31;;;7.98;90.07
57048;BME280;42934;54.294;18.598;2023-03-20T04:58:50;100564.94;;;8.08;88.89
57048;BME280;42934;54.294;18.598;2023-03-20T05:01:22;100566.16;;;7.94;89.77
57048;BME280;42934;54.294;18.598;2023-03-20T05:03:51;100566.81;;;8.03;89.20
57048;BME280;42934;54.294;18.598;2023-03-20T05:06:31;100564.00;;;8.12;88.30
57048;BME280;42934;54.294;18.598;2023-03-20T05:09:01;100558.09;;;8.04;89.50
57048;BME280;42934;54.294;18.598;2023-03-20T05:11:32;100552.88;;;8.02;90.29
57048;BME280;42934;54.294;18.598;2023-03-20T05:14:06;100549.97;;;8.14;88.76
57048;BME280;42934;54.294;18.598;2023-03-20T05:17:05;100555.13;;;8.17;88.24
57048;BME280;42934;54.294;18.598;2023-03-20T05:20:08;100557.09;;;8.08;90.57
57048;BME280;42934;54.294;18.598;2023-03-20T05:22:51;100563.41;;;7.99;91.75
57048;BME280;42934;54.294;18.598;2023-03-20T05:25:46;100552.72;;;8.08;90.16
57048;BME280;42934;54.294;18.598;2023-03-20T05:28:25;100554.53;;;8.06;90.72
57048;BME280;42934;54.294;18.598;2023-03-20T05:31:10;100537.13;;;8.05;89.94
57048;BME280;42934;54.294;18.598;2023-03-20T05:34:07;100560.31;;;8.19;89.82
57048;BME280;42934;54.294;18.598;2023-03-20T05:37:05;100557.19;;;8.05;92.09
57048;BME280;42934;54.294;18.598;2023-03-20T05:39:53;100559.94;;;8.00;93.61
57048;BME280;42934;54.294;18.598;2023-03-20T05:42:34;100555.19;;;8.16;91.85
57048;BME280;42934;54.294;18.598;2023-03-20T05:45:41;100552.38;;;8.24;91.10
57048;BME280;42934;54.294;18.598;2023-03-20T05:48:26;100553.25;;;8.23;91.63
57048;BME280;42934;54.294;18.598;2023-03-20T05:51:12;100556.72;;;8.25;91.15
57048;BME280;42934;54.294;18.598;2023-03-20T05:53:53;100553.97;;;8.29;90.42
57048;BME280;42934;54.294;18.598;2023-03-20T05:56:32;100559.09;;;8.34;90.41
57048;BME280;42934;54.294;18.598;2023-03-20T05:59:11;100552.88;;;8.39;89.89
57048;BME280;42934;54.294;18.598;2023-03-20T06:02:07;100560.69;;;8.41;90.04
57048;BME280;42934;54.294;18.598;2023-03-20T06:04:42;100552.75;;;8.44;90.48
57048;BME280;42934;54.294;18.598;2023-03-20T06:07:11;100553.56;;;8.46;90.77
57048;BME280;42934;54.294;18.598;2023-03-20T06:09:44;100556.88;;;8.53;89.81
57048;BME280;42934;54.294;18.598;2023-03-20T06:12:14;100562.88;;;8.58;89.90
57048;BME280;42934;54.294;18.598;2023-03-20T06:14:44;100553.25;;;8.58;89.56
57048;BME280;42934;54.294;18.598;2023-03-20T06:17:14;100552.41;;;8.58;90.25
57048;BME280;42934;54.294;18.598;2023-03-20T06:19:50;100554.91;;;8.62;89.01
57048;BME280;42934;54.294;18.598;2023-03-20T06:22:20;100555.69;;;8.66;88.96
57048;BME280;42934;54.294;18.598;2023-03-20T06:24:49;100554.78;;;8.67;89.08
57048;BME280;42934;54.294;18.598;2023-03-20T06:27:19;100553.91;;;8.68;88.91
57048;BME280;42934;54.294;18.598;2023-03-20T06:29:49;100548.56;;;8.71;89.02
57048;BME280;42934;54.294;18.598;2023-03-20T06:32:30;100557.22;;;8.73;88.82
57048;BME280;42934;54.294;18.598;2023-03-20T06:35:04;100559.84;;;8.73;88.90
57048;BME280;42934;54.294;18.598;2023-03-20T06:37:35;100552.88;;;8.74;88.96
57048;BME280;42934;54.294;18.598;2023-03-20T06:40:11;100552.78;;;8.77;89.29
57048;BME280;42934;54.294;18.598;2023-03-20T06:42:41;100557.06;;;8.79;88.99
57048;BME280;42934;54.294;18.598;2023-03-20T06:45:11;100559.66;;;8.81;89.15
57048;BME280;42934;54.294;18.598;2023-03-20T06:47:53;100556.94;;;8.84;89.00
57048;BME280;42934;54.294;18.598;2023-03-20T06:50:24;100564.78;;;8.85;89.31
57048;BME280;42934;54.294;18.598;2023-03-20T06:52:56;100557.72;;;8.87;88.80
57048;BME280;42934;54.294;18.598;2023-03-20T06:55:55;100551.59;;;8.89;88.93
57048;BME280;42934;54.294;18.598;2023-03-20T06:58:25;100554.31;;;8.85;90.19
57048;BME280;42934;54.294;18.598;2023-03-20T07:00:55;100541.91;;;8.92;89.60
57048;BME280;42934;54.294;18.598;2023-03-20T07:03:25;100549.59;;;8.98;89.12
57048;BME280;42934;54.294;18.598;2023-03-20T07:05:58;100553.06;;;8.99;90.09
57048;BME280;42934;54.294;18.598;2023-03-20T07:08:28;100551.13;;;9.05;90.69
57048;BME280;42934;54.294;18.598;2023-03-20T07:11:02;100553.47;;;9.15;89.35
57048;BME280;42934;54.294;18.598;2023-03-20T07:13:32;100558.72;;;9.15;90.59
57048;BME280;42934;54.294;18.598;2023-03-20T07:16:11;100563.16;;;9.13;93.97
57048;BME280;42934;54.294;18.598;2023-03-20T07:18:42;100564.59;;;9.23;92.89
57048;BME280;42934;54.294;18.598;2023-03-20T07:21:17;100561.22;;;9.19;94.65
57048;BME280;42934;54.294;18.598;2023-03-20T07:23:48;100561.81;;;9.29;94.00
57048;BME280;42934;54.294;18.598;2023-03-20T07:26:18;100568.50;;;9.39;93.03
57048;BME280;42934;54.294;18.598;2023-03-20T07:28:48;100566.66;;;9.43;93.01
57048;BME280;42934;54.294;18.598;2023-03-20T07:31:26;100566.38;;;9.52;91.40
57048;BME280;42934;54.294;18.598;2023-03-20T07:34:14;100566.19;;;9.58;91.77
57048;BME280;42934;54.294;18.598;2023-03-20T07:36:46;100566.94;;;9.62;92.09
57048;BME280;42934;54.294;18.598;2023-03-20T07:39:19;100566.81;;;9.66;92.11
57048;BME280;42934;54.294;18.598;2023-03-20T07:42:08;100567.50;;;9.73;91.89
57048;BME280;42934;54.294;18.598;2023-03-20T07:44:45;100563.09;;;9.73;92.50
57048;BME280;42934;54.294;18.598;2023-03-20T07:47:14;100553.31;;;9.80;91.90
57048;BME280;42934;54.294;18.598;2023-03-20T07:49:44;100546.94;;;9.87;91.30
57048;BME280;42934;54.294;18.598;2023-03-20T07:52:15;100551.31;;;9.88;91.03
57048;BME280;42934;54.294;18.598;2023-03-20T07:54:45;100552.84;;;9.94;90.44
57048;BME280;42934;54.294;18.598;2023-03-20T07:57:14;100545.81;;;9.96;89.98
57048;BME280;42934;54.294;18.598;2023-03-20T07:59:45;100554.53;;;9.96;89.80
57048;BME280;42934;54.294;18.598;2023-03-20T08:02:15;100553.56;;;9.99;89.81
57048;BME280;42934;54.294;18.598;2023-03-20T08:04:45;100549.03;;;10.04;89.54
57048;BME280;42934;54.294;18.598;2023-03-20T08:07:16;100548.97;;;10.06;90.04
57048;BME280;42934;54.294;18.598;2023-03-20T08:09:46;100553.97;;;10.15;89.41
57048;BME280;42934;54.294;18.598;2023-03-20T08:12:15;100551.25;;;10.16;89.15
57048;BME280;42934;54.294;18.598;2023-03-20T08:14:45;100551.03;;;10.24;88.97
57048;BME280;42934;54.294;18.598;2023-03-20T08:17:14;100550.78;;;10.32;88.68
57048;BME280;42934;54.294;18.598;2023-03-20T08:19:48;100544.66;;;10.33;88.92
57048;BME280;42934;54.294;18.598;2023-03-20T08:22:19;100547.22;;;10.34;88.38
57048;BME280;42934;54.294;18.598;2023-03-20T08:24:48;100547.75;;;10.44;88.57
57048;BME280;42934;54.294;18.598;2023-03-20T08:27:18;100545.34;;;10.38;89.17
57048;BME280;42934;54.294;18.598;2023-03-20T08:29:48;100549.53;;;10.43;89.44
57048;BME280;42934;54.294;18.598;2023-03-20T08:32:17;100543.06;;;10.54;89.15
57048;BME280;42934;54.294;18.598;2023-03-20T08:34:47;100542.84;;;10.60;88.89
57048;BME280;42934;54.294;18.598;2023-03-20T08:37:17;100539.41;;;10.58;89.93
57048;BME280;42934;54.294;18.598;2023-03-20T08:39:47;100547.81;;;10.67;90.30
57048;BME280;42934;54.294;18.598;2023-03-20T08:42:17;100547.53;;;10.77;91.11
57048;BME280;42934;54.294;18.598;2023-03-20T08:44:47;100551.31;;;10.93;90.74
57048;BME280;42934;54.294;18.598;2023-03-20T08:47:16;100553.38;;;11.08;90.24
57048;BME280;42934;54.294;18.598;2023-03-20T08:49:46;100535.56;;;11.17;89.38
57048;BME280;42934;54.294;18.598;2023-03-20T08:52:17;100543.97;;;11.26;89.22
57048;BME280;42934;54.294;18.598;2023-03-20T08:54:47;100539.63;;;11.25;88.53
57048;BME280;42934;54.294;18.598;2023-03-20T08:57:18;100538.44;;;11.34;88.28
57048;BME280;42934;54.294;18.598;2023-03-20T08:59:47;100530.38;;;11.39;88.36
57048;BME280;42934;54.294;18.598;2023-03-20T09:02:17;100536.19;;;11.47;87.85
57048;BME280;42934;54.294;18.598;2023-03-20T09:04:47;100543.38;;;11.65;87.84
57048;BME280;42934;54.294;18.598;2023-03-20T09:07:17;100538.09;;;11.89;87.00
57048;BME280;42934;54.294;18.598;2023-03-20T09:09:47;100535.41;;;12.12;86.46
57048;BME280;42934;54.294;18.598;2023-03-20T09:12:16;100528.44;;;12.32;85.83
57048;BME280;42934;54.294;18.598;2023-03-20T09:14:46;100538.81;;;12.57;84.03
57048;BME280;42934;54.294;18.598;2023-03-20T09:17:16;100538.00;;;12.75;82.25
57048;BME280;42934;54.294;18.598;2023-03-20T09:19:45;100527.50;;;12.94;80.79
57048;BME280;42934;54.294;18.598;2023-03-20T09:22:15;100530.53;;;13.05;80.28
57048;BME280;42934;54.294;18.598;2023-03-20T09:24:46;100540.16;;;13.06;78.58
57048;BME280;42934;54.294;18.598;2023-03-20T09:27:16;100532.94;;;13.30;77.43
57048;BME280;42934;54.294;18.598;2023-03-20T09:29:45;100534.53;;;13.53;75.68
57048;BME280;42934;54.294;18.598;2023-03-20T09:32:15;100540.78;;;13.70;75.45
57048;BME280;42934;54.294;18.598;2023-03-20T09:34:45;100529.88;;;13.77;74.54
57048;BME280;42934;54.294;18.598;2023-03-20T09:37:14;100537.88;;;13.93;73.44
57048;BME280;42934;54.294;18.598;2023-03-20T09:39:45;100541.41;;;14.11;73.30
57048;BME280;42934;54.294;18.598;2023-03-20T09:42:26;100539.09;;;14.22;72.00
57048;BME280;42934;54.294;18.598;2023-03-20T09:45:04;100542.28;;;14.29;72.04
57048;BME280;42934;54.294;18.598;2023-03-20T09:47:43;100546.53;;;14.50;72.84
57048;BME280;42934;54.294;18.598;2023-03-20T09:50:25;100551.38;;;14.41;71.61
57048;BME280;42934;54.294;18.598;2023-03-20T09:53:00;100554.94;;;14.22;71.84
57048;BME280;42934;54.294;18.598;2023-03-20T09:55:37;100566.13;;;13.91;72.15
57048;BME280;42934;54.294;18.598;2023-03-20T09:58:12;100564.28;;;13.93;73.25
57048;BME280;42934;54.294;18.598;2023-03-20T10:00:45;100571.06;;;13.99;73.53
57048;BME280;42934;54.294;18.598;2023-03-20T10:03:18;100580.97;;;13.56;71.89
57048;BME280;42934;54.294;18.598;2023-03-20T10:05:53;100579.47;;;13.31;72.33
57048;BME280;42934;54.294;18.598;2023-03-20T10:08:28;100581.31;;;13.29;72.25
57048;BME280;42934;54.294;18.598;2023-03-20T10:11:11;100578.44;;;13.15;73.19
57048;BME280;42934;54.294;18.598;2023-03-20T10:13:54;100584.56;;;13.15;72.47
57048;BME280;42934;54.294;18.598;2023-03-20T10:16:38;100585.31;;;13.17;72.28
57048;BME280;42934;54.294;18.598;2023-03-20T10:19:16;100588.97;;;13.35;72.57
57048;BME280;42934;54.294;18.598;2023-03-20T10:21:53;100585.47;;;13.14;72.32
57048;BME280;42934;54.294;18.598;2023-03-20T10:24:28;100587.06;;;13.18;73.07
57048;BME280;42934;54.294;18.598;2023-03-20T10:27:05;100573.59;;;13.45;73.19
57048;BME280;42934;54.294;18.598;2023-03-20T10:29:48;100578.13;;;13.79;72.30
57048;BME280;42934;54.294;18.598;2023-03-20T10:32:25;100585.69;;;13.87;70.50
57048;BME280;42934;54.294;18.598;2023-03-20T10:35:01;100577.19;;;13.99;70.57
57048;BME280;42934;54.294;18.598;2023-03-20T10:37:47;100596.50;;;13.82;70.87
57048;BME280;42934;54.294;18.598;2023-03-20T10:40:26;100593.50;;;13.32;70.86
57048;BME280;42934;54.294;18.598;2023-03-20T10:43:02;100597.47;;;13.22;71.40
57048;BME280;42934;54.294;18.598;2023-03-20T10:45:39;100595.66;;;13.03;72.22
57048;BME280;42934;54.294;18.598;2023-03-20T10:48:16;100601.16;;;12.56;72.74
57048;BME280;42934;54.294;18.598;2023-03-20T10:50:49;100593.59;;;12.69;72.89
57048;BME280;42934;54.294;18.598;2023-03-20T10:53:31;100595.38;;;12.68;72.94
57048;BME280;42934;54.294;18.598;2023-03-20T10:56:06;100596.63;;;12.38;73.26
57048;BME280;42934;54.294;18.598;2023-03-20T10:58:41;100590.53;;;12.37;73.58
57048;BME280;42934;54.294;18.598;2023-03-20T11:01:11;100587.88;;;12.37;73.90
57048;BME280;42934;54.294;18.598;2023-03-20T11:03:41;100597.03;;;12.28;74.25
57048;BME280;42934;54.294;18.598;2023-03-20T11:06:16;100586.56;;;12.27;74.19
57048;BME280;42934;54.294;18.598;2023-03-20T11:08:49;100598.44;;;12.15;74.88
57048;BME280;42934;54.294;18.598;2023-03-20T11:11:23;100593.66;;;12.25;74.93
57048;BME280;42934;54.294;18.598;2023-03-20T11:13:56;100591.06;;;12.23;74.77
57048;BME280;42934;54.294;18.598;2023-03-20T11:16:37;100596.72;;;12.14;74.89
57048;BME280;42934;54.294;18.598;2023-03-20T11:19:10;100595.00;;;12.13;75.68
57048;BME280;42934;54.294;18.598;2023-03-20T11:21:47;100595.63;;;12.20;74.91
57048;BME280;42934;54.294;18.598;2023-03-20T11:24:32;100594.63;;;12.22;75.61
57048;BME280;42934;54.294;18.598;2023-03-20T11:27:08;100597.03;;;12.28;75.19
57048;BME280;42934;54.294;18.598;2023-03-20T11:29:41;100597.34;;;12.21;75.10
57048;BME280;42934;54.294;18.598;2023-03-20T11:32:19;100597.66;;;11.91;74.77
57048;BME280;42934;54.294;18.598;2023-03-20T11:34:51;100598.13;;;11.77;75.38
57048;BME280;42934;54.294;18.598;2023-03-20T11:37:25;100597.31;;;11.99;75.02
57048;BME280;42934;54.294;18.598;2023-03-20T11:39:58;100587.41;;;12.27;74.42
57048;BME280;42934;54.294;18.598;2023-03-20T11:42:29;100591.84;;;12.27;73.55
57048;BME280;42934;54.294;18.598;2023-03-20T11:45:02;100592.38;;;12.13;73.69
57048;BME280;42934;54.294;18.598;2023-03-20T11:47:33;100589.25;;;12.25;73.46
57048;BME280;42934;54.294;18.598;2023-03-20T11:50:05;100591.75;;;12.28;73.24
57048;BME280;42934;54.294;18.598;2023-03-20T11:52:38;100580.13;;;12.34;71.94
57048;BME280;42934;54.294;18.598;2023-03-20T11:55:24;100581.34;;;12.25;72.59
57048;BME280;42934;54.294;18.598;2023-03-20T11:57:58;100592.75;;;12.04;72.79
57048;BME280;42934;54.294;18.598;2023-03-20T12:00:35;100597.72;;;11.88;72.65
57048;BME280;42934;54.294;18.598;2023-03-20T12:03:42;100595.56;;;11.76;72.61
57048;BME280;42934;54.294;18.598;2023-03-20T12:06:16;100596.31;;;11.79;72.39
57048;BME280;42934;54.294;18.598;2023-03-20T12:08:53;100587.69;;;11.52;72.47
57048;BME280;42934;54.294;18.598;2023-03-20T12:11:42;100596.38;;;11.54;72.87
57048;BME280;42934;54.294;18.598;2023-03-20T12:14:21;100596.72;;;11.69;72.75
57048;BME280;42934;54.294;18.598;2023-03-20T12:16:59;100596.84;;;11.89;72.90
57048;BME280;42934;54.294;18.598;2023-03-20T12:19:30;100595.66;;;11.96;73.09
57048;BME280;42934;54.294;18.598;2023-03-20T12:22:06;100589.09;;;11.61;72.65
57048;BME280;42934;54.294;18.598;2023-03-20T12:24:44;100590.19;;;11.55;72.46
57048;BME280;42934;54.294;18.598;2023-03-20T12:27:22;100593.59;;;11.59;72.90
57048;BME280;42934;54.294;18.598;2023-03-20T12:29:57;100593.13;;;11.48;73.51
57048;BME280;42934;54.294;18.598;2023-03-20T12:32:34;100587.44;;;11.35;74.59
57048;BME280;42934;54.294;18.598;2023-03-20T12:35:09;100584.03;;;11.33;74.95
57048;BME280;42934;54.294;18.598;2023-03-20T12:37:43;100576.16;;;11.33;75.60
57048;BME280;42934;54.294;18.598;2023-03-20T12:40:16;100574.41;;;11.55;74.83
57048;BME280;42934;54.294;18.598;2023-03-20T12:42:56;100569.00;;;11.60;74.29
57048;BME280;42934;54.294;18.598;2023-03-20T12:45:32;100561.19;;;11.80;74.27
57048;BME280;42934;54.294;18.598;2023-03-20T12:51:20;100554.47;;;12.39;72.38
57048;BME280;42934;54.294;18.598;2023-03-20T12:54:06;100568.81;;;12.10;72.91
57048;BME280;42934;54.294;18.598;2023-03-20T12:56:58;100556.03;;;12.01;72.10
57048;BME280;42934;54.294;18.598;2023-03-20T12:59:38;100556.53;;;11.65;71.46
57048;BME280;42934;54.294;18.598;2023-03-20T13:02:19;100553.53;;;11.74;71.46
57048;BME280;42934;54.294;18.598;2023-03-20T13:04:59;100552.03;;;11.45;71.96
57048;BME280;42934;54.294;18.598;2023-03-20T13:07:44;100551.44;;;11.37;72.24
57048;BME280;42934;54.294;18.598;2023-03-20T13:10:20;100549.31;;;11.47;72.26
57048;BME280;42934;54.294;18.598;2023-03-20T13:12:57;100545.13;;;11.65;72.06
57048;BME280;42934;54.294;18.598;2023-03-20T13:15:43;100541.50;;;11.91;72.02
57048;BME280;42934;54.294;18.598;2023-03-20T13:18:20;100544.28;;;12.10;70.47
57048;BME280;42934;54.294;18.598;2023-03-20T13:20:55;100543.78;;;12.22;70.80
57048;BME280;42934;54.294;18.598;2023-03-20T13:23:27;100543.59;;;12.26;70.14
57048;BME280;42934;54.294;18.598;2023-03-20T13:26:11;100542.69;;;11.82;70.47
57048;BME280;42934;54.294;18.598;2023-03-20T13:28:51;100552.13;;;11.89;69.95
57048;BME280;42934;54.294;18.598;2023-03-20T13:31:36;100555.97;;;11.33;71.50
57048;BME280;42934;54.294;18.598;2023-03-20T13:34:18;100555.41;;;11.49;71.27